Gjoa Haven Airport
CYHK : now visible

Airfield :











YOU CAN JOIN US ON...

 
LOGIN :

Register | Disclaimer

   EN    FR    IT 

 









Legend :    VFR   Marginal VFR   IFR   Intensive IFR   Very Intensive IFR
Visi :
Ceiling :
>= 8 km
>= 3000ft
5 to 8 km
1000 to 3000 ft
1500m to 5 km
500 to 1000 ft
800 to 1500m
200 to 500 ft
< 800m
< 200 ft
Symbols :   Thunderstorms  Fog  Heavy snow  Heavy precipitations  Wind > 20 kt






- Airport Elevation : 152 ft
- IATA code : YHK


CYHK - Gjoa Haven

CURRENT METAR :
  • 281000Z AUTO 22007KT 5SM HZ SCT028 BKN100 BKN120 M34/M38 A3005 RMK SLP188

EXPIRED METARs :
  • 280900Z AUTO 19007KT 5SM HZ OVC120 M35/M39 A3005 RMK SLP188
  • 280800Z AUTO 21006KT 5SM HZ SCT120 BKN140 BKN160 M36/M39 A3007 RMK SLP195
  • 280700Z AUTO 21007KT 5SM HZ SCT003 SCT130 M36/M39 A3006 RMK SLP191

TAF AMD TAF CYHK
Valid from the 28 at 06:00 until the 28 at 18:00 UTC


280643Z 2806/2818 21010KT P6SM FEW120
TEMPO 2806/2813 5SM IC HZ BKN003 BKN140
FM281300 20010KT P6SM SCT020 BKN100
TEMPO 2813/2818 5SM -SN BKN020 OVC080 RMK FCST BASED ON AUTO OBS. NXT FCST BY 281200Z



MET'MAP, your aeronautical weather chart ! - Copyright ORBIFLY December 2007 - Disclaimer

ORBIFLY MET'MAP TEAM :

Programming & Development : Alexandra Zaïnal
Concept & original design : Baudouin d'Aumeries
Assistance for programming : Marc-Olivier Méhu
Technical & hardware support : Manuel Goepfert

Contact : metmap@orbifly.com




SOURCES & CREDITS :

   NOAA       Earth
Advisory